sensor_id;sensor_type;location;lat;lon;timestamp;P1;durP1;ratioP1;P2;durP2;ratioP2
21424;SDS011;10873;51.132;16.848;2023-03-01T00:01:23;27.25;;;18.33;;
21424;SDS011;10873;51.132;16.848;2023-03-01T00:03:50;26.83;;;18.48;;
21424;SDS011;10873;51.132;16.848;2023-03-01T00:06:17;26.02;;;18.25;;
21424;SDS011;10873;51.132;16.848;2023-03-01T00:08:43;29.15;;;19.88;;
21424;SDS011;10873;51.132;16.848;2023-03-01T00:11:12;27.20;;;19.27;;
21424;SDS011;10873;51.132;16.848;2023-03-01T00:13:39;29.35;;;20.00;;
21424;SDS011;10873;51.132;16.848;2023-03-01T00:16:06;28.67;;;20.02;;
21424;SDS011;10873;51.132;16.848;2023-03-01T00:18:35;29.23;;;20.70;;
21424;SDS011;10873;51.132;16.848;2023-03-01T00:21:01;30.00;;;21.98;;
21424;SDS011;10873;51.132;16.848;2023-03-01T00:23:28;29.35;;;21.55;;
21424;SDS011;10873;51.132;16.848;2023-03-01T00:25:54;28.92;;;20.75;;
21424;SDS011;10873;51.132;16.848;2023-03-01T00:28:21;31.27;;;21.55;;
21424;SDS011;10873;51.132;16.848;2023-03-01T00:30:47;29.95;;;21.10;;
21424;SDS011;10873;51.132;16.848;2023-03-01T00:33:13;30.23;;;20.33;;
21424;SDS011;10873;51.132;16.848;2023-03-01T00:35:40;32.20;;;20.85;;
21424;SDS011;10873;51.132;16.848;2023-03-01T00:38:06;29.60;;;20.42;;
21424;SDS011;10873;51.132;16.848;2023-03-01T00:40:33;28.67;;;20.50;;
21424;SDS011;10873;51.132;16.848;2023-03-01T00:43:00;30.85;;;19.73;;
21424;SDS011;10873;51.132;16.848;2023-03-01T00:45:27;28.60;;;20.33;;
21424;SDS011;10873;51.132;16.848;2023-03-01T00:47:53;27.25;;;19.35;;
21424;SDS011;10873;51.132;16.848;2023-03-01T00:50:19;29.58;;;20.08;;
21424;SDS011;10873;51.132;16.848;2023-03-01T00:52:51;28.08;;;20.27;;
21424;SDS011;10873;51.132;16.848;2023-03-01T00:55:18;28.58;;;19.80;;
21424;SDS011;10873;51.132;16.848;2023-03-01T00:57:44;29.77;;;20.27;;
21424;SDS011;10873;51.132;16.848;2023-03-01T01:00:10;29.33;;;20.75;;
21424;SDS011;10873;51.132;16.848;2023-03-01T01:02:37;30.35;;;21.10;;
21424;SDS011;10873;51.132;16.848;2023-03-01T01:05:03;31.42;;;22.08;;
21424;SDS011;10873;51.132;16.848;2023-03-01T01:07:30;32.92;;;21.70;;
21424;SDS011;10873;51.132;16.848;2023-03-01T01:09:57;30.52;;;21.00;;
21424;SDS011;10873;51.132;16.848;2023-03-01T01:12:23;31.77;;;20.85;;
21424;SDS011;10873;51.132;16.848;2023-03-01T01:14:49;33.45;;;22.67;;
21424;SDS011;10873;51.132;16.848;2023-03-01T01:17:15;33.33;;;21.23;;
21424;SDS011;10873;51.132;16.848;2023-03-01T01:19:41;35.33;;;22.45;;
21424;SDS011;10873;51.132;16.848;2023-03-01T01:22:07;29.63;;;21.50;;
21424;SDS011;10873;51.132;16.848;2023-03-01T01:24:34;33.97;;;23.75;;
21424;SDS011;10873;51.132;16.848;2023-03-01T01:27:01;32.08;;;22.80;;
21424;SDS011;10873;51.132;16.848;2023-03-01T01:29:28;31.38;;;21.60;;
21424;SDS011;10873;51.132;16.848;2023-03-01T01:31:53;33.35;;;23.08;;
21424;SDS011;10873;51.132;16.848;2023-03-01T01:34:20;33.00;;;22.20;;
21424;SDS011;10873;51.132;16.848;2023-03-01T01:36:47;34.42;;;22.67;;
21424;SDS011;10873;51.132;16.848;2023-03-01T01:39:15;32.55;;;21.98;;
21424;SDS011;10873;51.132;16.848;2023-03-01T01:41:41;34.00;;;22.70;;
21424;SDS011;10873;51.132;16.848;2023-03-01T01:44:11;35.88;;;24.05;;
21424;SDS011;10873;51.132;16.848;2023-03-01T01:46:40;34.83;;;24.50;;
21424;SDS011;10873;51.132;16.848;2023-03-01T01:49:10;34.97;;;23.60;;
21424;SDS011;10873;51.132;16.848;2023-03-01T01:51:47;36.65;;;24.33;;
21424;SDS011;10873;51.132;16.848;2023-03-01T01:54:16;36.78;;;24.55;;
21424;SDS011;10873;51.132;16.848;2023-03-01T01:56:48;35.03;;;23.40;;
21424;SDS011;10873;51.132;16.848;2023-03-01T01:59:20;32.83;;;23.33;;
21424;SDS011;10873;51.132;16.848;2023-03-01T02:01:49;37.75;;;24.63;;
21424;SDS011;10873;51.132;16.848;2023-03-01T02:04:16;33.03;;;22.50;;
21424;SDS011;10873;51.132;16.848;2023-03-01T02:06:44;34.42;;;22.90;;
21424;SDS011;10873;51.132;16.848;2023-03-01T02:09:16;34.70;;;23.58;;
21424;SDS011;10873;51.132;16.848;2023-03-01T02:11:46;32.25;;;23.00;;
21424;SDS011;10873;51.132;16.848;2023-03-01T02:14:13;35.83;;;24.13;;
21424;SDS011;10873;51.132;16.848;2023-03-01T02:16:42;35.33;;;24.60;;
21424;SDS011;10873;51.132;16.848;2023-03-01T02:19:08;33.58;;;23.02;;
21424;SDS011;10873;51.132;16.848;2023-03-01T02:21:42;36.50;;;23.60;;
21424;SDS011;10873;51.132;16.848;2023-03-01T02:24:18;36.75;;;23.58;;
21424;SDS011;10873;51.132;16.848;2023-03-01T02:26:53;36.75;;;24.45;;
21424;SDS011;10873;51.132;16.848;2023-03-01T02:29:22;34.78;;;23.90;;
21424;SDS011;10873;51.132;16.848;2023-03-01T02:31:49;36.60;;;25.63;;
21424;SDS011;10873;51.132;16.848;2023-03-01T02:34:19;36.67;;;24.95;;
21424;SDS011;10873;51.132;16.848;2023-03-01T02:36:48;35.35;;;24.25;;
21424;SDS011;10873;51.132;16.848;2023-03-01T02:39:18;36.58;;;25.35;;
21424;SDS011;10873;51.132;16.848;2023-03-01T02:41:49;37.15;;;25.05;;
21424;SDS011;10873;51.132;16.848;2023-03-01T02:44:17;40.05;;;26.40;;
21424;SDS011;10873;51.132;16.848;2023-03-01T02:46:46;37.17;;;25.70;;
21424;SDS011;10873;51.132;16.848;2023-03-01T02:49:21;40.08;;;26.63;;
21424;SDS011;10873;51.132;16.848;2023-03-01T02:51:52;40.97;;;27.20;;
21424;SDS011;10873;51.132;16.848;2023-03-01T02:54:31;42.70;;;27.75;;
21424;SDS011;10873;51.132;16.848;2023-03-01T02:57:03;40.97;;;27.27;;
21424;SDS011;10873;51.132;16.848;2023-03-01T02:59:30;42.33;;;27.35;;
21424;SDS011;10873;51.132;16.848;2023-03-01T03:02:07;46.72;;;28.00;;
21424;SDS011;10873;51.132;16.848;2023-03-01T03:04:46;41.60;;;28.23;;
21424;SDS011;10873;51.132;16.848;2023-03-01T03:07:12;42.22;;;28.65;;
21424;SDS011;10873;51.132;16.848;2023-03-01T03:09:38;44.03;;;28.58;;
21424;SDS011;10873;51.132;16.848;2023-03-01T03:12:04;40.65;;;27.77;;
21424;SDS011;10873;51.132;16.848;2023-03-01T03:14:30;45.08;;;29.52;;
21424;SDS011;10873;51.132;16.848;2023-03-01T03:16:59;46.03;;;30.98;;
21424;SDS011;10873;51.132;16.848;2023-03-01T03:19:27;44.25;;;29.90;;
21424;SDS011;10873;51.132;16.848;2023-03-01T03:21:53;46.50;;;30.73;;
21424;SDS011;10873;51.132;16.848;2023-03-01T03:24:19;45.35;;;29.75;;
21424;SDS011;10873;51.132;16.848;2023-03-01T03:26:46;45.97;;;30.63;;
21424;SDS011;10873;51.132;16.848;2023-03-01T03:29:12;44.63;;;29.77;;
21424;SDS011;10873;51.132;16.848;2023-03-01T03:31:38;46.85;;;30.50;;
21424;SDS011;10873;51.132;16.848;2023-03-01T03:34:04;45.05;;;30.50;;
21424;SDS011;10873;51.132;16.848;2023-03-01T03:36:31;46.80;;;29.83;;
21424;SDS011;10873;51.132;16.848;2023-03-01T03:38:57;48.42;;;31.30;;
21424;SDS011;10873;51.132;16.848;2023-03-01T03:41:23;45.75;;;30.85;;
21424;SDS011;10873;51.132;16.848;2023-03-01T03:43:49;49.40;;;31.65;;
21424;SDS011;10873;51.132;16.848;2023-03-01T03:46:15;50.10;;;32.10;;
21424;SDS011;10873;51.132;16.848;2023-03-01T03:48:43;48.72;;;31.48;;
21424;SDS011;10873;51.132;16.848;2023-03-01T03:51:10;47.72;;;31.02;;
21424;SDS011;10873;51.132;16.848;2023-03-01T03:53:39;49.33;;;31.33;;
21424;SDS011;10873;51.132;16.848;2023-03-01T03:56:05;45.80;;;30.05;;
21424;SDS011;10873;51.132;16.848;2023-03-01T03:58:32;47.10;;;31.55;;
21424;SDS011;10873;51.132;16.848;2023-03-01T04:00:58;47.55;;;29.75;;
21424;SDS011;10873;51.132;16.848;2023-03-01T04:03:26;46.88;;;29.60;;
21424;SDS011;10873;51.132;16.848;2023-03-01T04:05:53;46.40;;;29.83;;
21424;SDS011;10873;51.132;16.848;2023-03-01T04:08:22;46.90;;;30.08;;
21424;SDS011;10873;51.132;16.848;2023-03-01T04:10:51;42.97;;;29.23;;
21424;SDS011;10873;51.132;16.848;2023-03-01T04:13:18;42.03;;;28.52;;
21424;SDS011;10873;51.132;16.848;2023-03-01T04:15:46;43.78;;;27.83;;
21424;SDS011;10873;51.132;16.848;2023-03-01T04:18:14;45.20;;;29.38;;
21424;SDS011;10873;51.132;16.848;2023-03-01T04:20:42;44.75;;;27.70;;
21424;SDS011;10873;51.132;16.848;2023-03-01T04:23:11;42.92;;;27.63;;
21424;SDS011;10873;51.132;16.848;2023-03-01T04:25:41;41.58;;;27.52;;
21424;SDS011;10873;51.132;16.848;2023-03-01T04:28:12;43.63;;;27.73;;
21424;SDS011;10873;51.132;16.848;2023-03-01T04:30:39;38.70;;;26.83;;
21424;SDS011;10873;51.132;16.848;2023-03-01T04:33:07;47.90;;;26.00;;
21424;SDS011;10873;51.132;16.848;2023-03-01T04:35:34;39.03;;;25.83;;
21424;SDS011;10873;51.132;16.848;2023-03-01T04:38:01;40.40;;;25.92;;
21424;SDS011;10873;51.132;16.848;2023-03-01T04:40:27;40.55;;;26.60;;
21424;SDS011;10873;51.132;16.848;2023-03-01T04:42:54;37.42;;;24.83;;
21424;SDS011;10873;51.132;16.848;2023-03-01T04:45:21;40.22;;;25.88;;
21424;SDS011;10873;51.132;16.848;2023-03-01T04:47:47;41.53;;;27.50;;
21424;SDS011;10873;51.132;16.848;2023-03-01T04:50:13;40.70;;;26.15;;
21424;SDS011;10873;51.132;16.848;2023-03-01T04:52:41;38.72;;;26.33;;
21424;SDS011;10873;51.132;16.848;2023-03-01T04:55:08;39.88;;;26.08;;
21424;SDS011;10873;51.132;16.848;2023-03-01T04:57:35;44.53;;;27.73;;
21424;SDS011;10873;51.132;16.848;2023-03-01T05:00:01;44.05;;;28.05;;
21424;SDS011;10873;51.132;16.848;2023-03-01T05:02:47;43.22;;;27.85;;
21424;SDS011;10873;51.132;16.848;2023-03-01T05:05:21;41.70;;;27.27;;
21424;SDS011;10873;51.132;16.848;2023-03-01T05:07:53;40.60;;;26.73;;
21424;SDS011;10873;51.132;16.848;2023-03-01T05:10:20;38.55;;;26.02;;
21424;SDS011;10873;51.132;16.848;2023-03-01T05:12:47;37.85;;;25.48;;
21424;SDS011;10873;51.132;16.848;2023-03-01T05:15:13;39.75;;;25.92;;
21424;SDS011;10873;51.132;16.848;2023-03-01T05:17:40;43.25;;;25.88;;
21424;SDS011;10873;51.132;16.848;2023-03-01T05:20:08;40.63;;;25.95;;
21424;SDS011;10873;51.132;16.848;2023-03-01T05:22:35;38.20;;;25.42;;
21424;SDS011;10873;51.132;16.848;2023-03-01T05:25:02;39.58;;;25.88;;
21424;SDS011;10873;51.132;16.848;2023-03-01T05:27:29;49.17;;;26.20;;
21424;SDS011;10873;51.132;16.848;2023-03-01T05:29:55;72.60;;;26.35;;
21424;SDS011;10873;51.132;16.848;2023-03-01T05:32:21;64.90;;;26.30;;
21424;SDS011;10873;51.132;16.848;2023-03-01T05:34:47;50.75;;;25.50;;
21424;SDS011;10873;51.132;16.848;2023-03-01T05:37:14;45.90;;;25.27;;
21424;SDS011;10873;51.132;16.848;2023-03-01T05:39:40;44.90;;;24.55;;
21424;SDS011;10873;51.132;16.848;2023-03-01T05:42:09;47.20;;;24.23;;
21424;SDS011;10873;51.132;16.848;2023-03-01T05:44:36;42.13;;;23.67;;
21424;SDS011;10873;51.132;16.848;2023-03-01T05:47:02;40.90;;;24.33;;
21424;SDS011;10873;51.132;16.848;2023-03-01T05:49:28;40.38;;;24.30;;
21424;SDS011;10873;51.132;16.848;2023-03-01T05:51:55;38.22;;;23.95;;
21424;SDS011;10873;51.132;16.848;2023-03-01T05:54:22;38.55;;;24.33;;
21424;SDS011;10873;51.132;16.848;2023-03-01T05:56:48;37.28;;;24.27;;
21424;SDS011;10873;51.132;16.848;2023-03-01T05:59:14;38.75;;;24.20;;
21424;SDS011;10873;51.132;16.848;2023-03-01T06:01:41;40.65;;;25.02;;
21424;SDS011;10873;51.132;16.848;2023-03-01T06:04:07;40.92;;;24.48;;
21424;SDS011;10873;51.132;16.848;2023-03-01T06:06:34;38.65;;;25.15;;
21424;SDS011;10873;51.132;16.848;2023-03-01T06:09:02;39.55;;;25.58;;
21424;SDS011;10873;51.132;16.848;2023-03-01T06:11:30;38.72;;;24.83;;
21424;SDS011;10873;51.132;16.848;2023-03-01T06:13:56;37.50;;;25.10;;
21424;SDS011;10873;51.132;16.848;2023-03-01T06:16:22;36.75;;;25.67;;
21424;SDS011;10873;51.132;16.848;2023-03-01T06:18:48;36.97;;;25.67;;
21424;SDS011;10873;51.132;16.848;2023-03-01T06:21:14;38.13;;;24.65;;
21424;SDS011;10873;51.132;16.848;2023-03-01T06:23:40;38.30;;;25.02;;
21424;SDS011;10873;51.132;16.848;2023-03-01T06:26:07;38.75;;;26.05;;
21424;SDS011;10873;51.132;16.848;2023-03-01T06:28:35;40.80;;;26.15;;
21424;SDS011;10873;51.132;16.848;2023-03-01T06:31:01;39.38;;;25.88;;
21424;SDS011;10873;51.132;16.848;2023-03-01T06:33:27;36.92;;;25.55;;
21424;SDS011;10873;51.132;16.848;2023-03-01T06:35:54;38.00;;;25.38;;
21424;SDS011;10873;51.132;16.848;2023-03-01T06:38:21;37.17;;;26.25;;
21424;SDS011;10873;51.132;16.848;2023-03-01T06:40:53;40.03;;;26.58;;
21424;SDS011;10873;51.132;16.848;2023-03-01T06:43:20;38.17;;;25.58;;
21424;SDS011;10873;51.132;16.848;2023-03-01T06:45:47;39.42;;;25.70;;
21424;SDS011;10873;51.132;16.848;2023-03-01T06:48:13;38.97;;;26.13;;
21424;SDS011;10873;51.132;16.848;2023-03-01T06:50:39;41.08;;;25.73;;
21424;SDS011;10873;51.132;16.848;2023-03-01T06:53:05;37.72;;;24.85;;
21424;SDS011;10873;51.132;16.848;2023-03-01T06:55:31;35.60;;;24.15;;
21424;SDS011;10873;51.132;16.848;2023-03-01T06:57:58;34.10;;;24.63;;
21424;SDS011;10873;51.132;16.848;2023-03-01T07:00:25;35.60;;;24.85;;
21424;SDS011;10873;51.132;16.848;2023-03-01T07:02:53;36.38;;;24.20;;
21424;SDS011;10873;51.132;16.848;2023-03-01T07:05:20;36.45;;;25.20;;
21424;SDS011;10873;51.132;16.848;2023-03-01T07:07:46;36.42;;;24.50;;
21424;SDS011;10873;51.132;16.848;2023-03-01T07:10:12;33.95;;;23.75;;
21424;SDS011;10873;51.132;16.848;2023-03-01T07:12:39;36.53;;;24.98;;
21424;SDS011;10873;51.132;16.848;2023-03-01T07:15:07;38.97;;;25.90;;
21424;SDS011;10873;51.132;16.848;2023-03-01T07:17:34;39.20;;;26.17;;
21424;SDS011;10873;51.132;16.848;2023-03-01T07:20:02;35.60;;;24.48;;
21424;SDS011;10873;51.132;16.848;2023-03-01T07:22:28;40.20;;;26.23;;
21424;SDS011;10873;51.132;16.848;2023-03-01T07:24:54;37.33;;;25.33;;
21424;SDS011;10873;51.132;16.848;2023-03-01T07:27:20;34.35;;;24.17;;
21424;SDS011;10873;51.132;16.848;2023-03-01T07:29:46;35.80;;;25.45;;
21424;SDS011;10873;51.132;16.848;2023-03-01T07:32:12;37.58;;;25.45;;
21424;SDS011;10873;51.132;16.848;2023-03-01T07:34:38;38.90;;;26.17;;
21424;SDS011;10873;51.132;16.848;2023-03-01T07:37:05;41.03;;;26.65;;
21424;SDS011;10873;51.132;16.848;2023-03-01T07:39:31;38.15;;;26.48;;
21424;SDS011;10873;51.132;16.848;2023-03-01T07:41:57;38.67;;;26.10;;
21424;SDS011;10873;51.132;16.848;2023-03-01T07:44:24;34.92;;;25.20;;
21424;SDS011;10873;51.132;16.848;2023-03-01T07:46:50;37.03;;;26.55;;
21424;SDS011;10873;51.132;16.848;2023-03-01T07:49:21;36.45;;;25.35;;
21424;SDS011;10873;51.132;16.848;2023-03-01T07:51:47;36.25;;;25.40;;
21424;SDS011;10873;51.132;16.848;2023-03-01T07:54:15;39.58;;;26.98;;
21424;SDS011;10873;51.132;16.848;2023-03-01T07:56:40;38.63;;;26.83;;
21424;SDS011;10873;51.132;16.848;2023-03-01T07:59:07;37.47;;;26.95;;
21424;SDS011;10873;51.132;16.848;2023-03-01T08:01:32;39.03;;;26.95;;
21424;SDS011;10873;51.132;16.848;2023-03-01T08:03:59;41.88;;;27.55;;
21424;SDS011;10873;51.132;16.848;2023-03-01T08:06:24;40.58;;;26.60;;
21424;SDS011;10873;51.132;16.848;2023-03-01T08:08:51;40.92;;;26.00;;
21424;SDS011;10873;51.132;16.848;2023-03-01T08:11:18;41.28;;;26.83;;
21424;SDS011;10873;51.132;16.848;2023-03-01T08:13:46;39.38;;;26.52;;
21424;SDS011;10873;51.132;16.848;2023-03-01T08:16:14;39.97;;;26.55;;
21424;SDS011;10873;51.132;16.848;2023-03-01T08:18:41;40.85;;;27.65;;
21424;SDS011;10873;51.132;16.848;2023-03-01T08:21:08;42.03;;;28.45;;
21424;SDS011;10873;51.132;16.848;2023-03-01T08:23:35;39.63;;;26.83;;
21424;SDS011;10873;51.132;16.848;2023-03-01T08:26:08;38.58;;;26.73;;
21424;SDS011;10873;51.132;16.848;2023-03-01T08:28:37;39.65;;;27.30;;
21424;SDS011;10873;51.132;16.848;2023-03-01T08:31:04;41.25;;;26.95;;
21424;SDS011;10873;51.132;16.848;2023-03-01T08:33:39;40.22;;;26.77;;
21424;SDS011;10873;51.132;16.848;2023-03-01T08:36:05;39.97;;;26.70;;
21424;SDS011;10873;51.132;16.848;2023-03-01T08:38:32;39.00;;;26.15;;
21424;SDS011;10873;51.132;16.848;2023-03-01T08:40:59;39.53;;;26.05;;
21424;SDS011;10873;51.132;16.848;2023-03-01T08:43:26;38.38;;;25.83;;
21424;SDS011;10873;51.132;16.848;2023-03-01T08:45:53;40.00;;;25.60;;
21424;SDS011;10873;51.132;16.848;2023-03-01T08:48:20;37.80;;;25.25;;
21424;SDS011;10873;51.132;16.848;2023-03-01T08:50:45;39.72;;;25.80;;
21424;SDS011;10873;51.132;16.848;2023-03-01T08:53:12;38.53;;;25.75;;
21424;SDS011;10873;51.132;16.848;2023-03-01T08:55:37;39.88;;;24.50;;
21424;SDS011;10873;51.132;16.848;2023-03-01T08:58:04;34.78;;;23.23;;
21424;SDS011;10873;51.132;16.848;2023-03-01T09:00:29;35.05;;;23.35;;
21424;SDS011;10873;51.132;16.848;2023-03-01T09:02:57;36.22;;;22.98;;
21424;SDS011;10873;51.132;16.848;2023-03-01T09:05:23;33.78;;;22.63;;
21424;SDS011;10873;51.132;16.848;2023-03-01T09:07:49;33.80;;;23.35;;
21424;SDS011;10873;51.132;16.848;2023-03-01T09:10:15;31.92;;;21.67;;
21424;SDS011;10873;51.132;16.848;2023-03-01T09:12:41;33.78;;;22.88;;
21424;SDS011;10873;51.132;16.848;2023-03-01T09:15:08;32.17;;;21.55;;
21424;SDS011;10873;51.132;16.848;2023-03-01T09:17:34;33.45;;;21.00;;
21424;SDS011;10873;51.132;16.848;2023-03-01T09:20:02;32.22;;;21.17;;
21424;SDS011;10873;51.132;16.848;2023-03-01T09:22:32;32.13;;;21.05;;
21424;SDS011;10873;51.132;16.848;2023-03-01T09:24:58;26.70;;;19.67;;
21424;SDS011;10873;51.132;16.848;2023-03-01T09:27:24;34.38;;;21.63;;
21424;SDS011;10873;51.132;16.848;2023-03-01T09:29:50;33.13;;;21.02;;
21424;SDS011;10873;51.132;16.848;2023-03-01T09:32:17;30.98;;;20.15;;
21424;SDS011;10873;51.132;16.848;2023-03-01T09:34:43;27.30;;;19.25;;
21424;SDS011;10873;51.132;16.848;2023-03-01T09:37:31;30.08;;;19.80;;
21424;SDS011;10873;51.132;16.848;2023-03-01T09:39:58;29.42;;;19.25;;
21424;SDS011;10873;51.132;16.848;2023-03-01T09:42:24;29.00;;;19.35;;
21424;SDS011;10873;51.132;16.848;2023-03-01T09:44:51;28.55;;;19.02;;
21424;SDS011;10873;51.132;16.848;2023-03-01T09:47:23;27.23;;;18.60;;
21424;SDS011;10873;51.132;16.848;2023-03-01T09:49:53;26.75;;;18.85;;
21424;SDS011;10873;51.132;16.848;2023-03-01T09:52:30;26.20;;;17.67;;
21424;SDS011;10873;51.132;16.848;2023-03-01T09:55:04;26.42;;;17.90;;
21424;SDS011;10873;51.132;16.848;2023-03-01T09:57:36;23.33;;;16.77;;
21424;SDS011;10873;51.132;16.848;2023-03-01T10:00:26;23.08;;;16.33;;
21424;SDS011;10873;51.132;16.848;2023-03-01T10:03:00;25.92;;;17.27;;
21424;SDS011;10873;51.132;16.848;2023-03-01T10:05:36;26.95;;;17.20;;
21424;SDS011;10873;51.132;16.848;2023-03-01T10:11:01;23.77;;;16.60;;
21424;SDS011;10873;51.132;16.848;2023-03-01T10:13:29;22.95;;;16.15;;
21424;SDS011;10873;51.132;16.848;2023-03-01T10:16:04;25.13;;;17.08;;
21424;SDS011;10873;51.132;16.848;2023-03-01T10:18:35;24.45;;;16.05;;
21424;SDS011;10873;51.132;16.848;2023-03-01T10:21:08;25.65;;;15.30;;
21424;SDS011;10873;51.132;16.848;2023-03-01T10:23:42;21.00;;;15.02;;
21424;SDS011;10873;51.132;16.848;2023-03-01T10:26:14;22.45;;;15.95;;
21424;SDS011;10873;51.132;16.848;2023-03-01T10:28:50;22.75;;;15.75;;
21424;SDS011;10873;51.132;16.848;2023-03-01T10:31:25;22.42;;;15.40;;
21424;SDS011;10873;51.132;16.848;2023-03-01T10:33:55;22.73;;;15.68;;
21424;SDS011;10873;51.132;16.848;2023-03-01T10:36:22;21.02;;;14.60;;
21424;SDS011;10873;51.132;16.848;2023-03-01T10:38:51;20.10;;;14.45;;
21424;SDS011;10873;51.132;16.848;2023-03-01T10:41:20;21.85;;;14.73;;
21424;SDS011;10873;51.132;16.848;2023-03-01T10:43:50;21.08;;;14.52;;
21424;SDS011;10873;51.132;16.848;2023-03-01T10:46:27;22.65;;;14.18;;
21424;SDS011;10873;51.132;16.848;2023-03-01T10:49:07;23.63;;;14.82;;
21424;SDS011;10873;51.132;16.848;2023-03-01T10:51:39;21.08;;;14.40;;
21424;SDS011;10873;51.132;16.848;2023-03-01T10:54:15;20.70;;;14.75;;
21424;SDS011;10873;51.132;16.848;2023-03-01T10:56:47;21.35;;;14.80;;
21424;SDS011;10873;51.132;16.848;2023-03-01T10:59:20;21.55;;;15.13;;
21424;SDS011;10873;51.132;16.848;2023-03-01T11:02:00;20.65;;;14.50;;
21424;SDS011;10873;51.132;16.848;2023-03-01T11:04:52;18.98;;;13.82;;
21424;SDS011;10873;51.132;16.848;2023-03-01T11:07:22;19.90;;;14.10;;
21424;SDS011;10873;51.132;16.848;2023-03-01T11:09:50;19.92;;;14.30;;
21424;SDS011;10873;51.132;16.848;2023-03-01T11:12:16;21.67;;;14.65;;
21424;SDS011;10873;51.132;16.848;2023-03-01T11:14:46;19.48;;;13.60;;
21424;SDS011;10873;51.132;16.848;2023-03-01T11:17:15;21.13;;;14.70;;
21424;SDS011;10873;51.132;16.848;2023-03-01T11:19:43;20.60;;;14.27;;
21424;SDS011;10873;51.132;16.848;2023-03-01T11:22:26;19.30;;;13.90;;
21424;SDS011;10873;51.132;16.848;2023-03-01T11:24:54;23.77;;;14.85;;
21424;SDS011;10873;51.132;16.848;2023-03-01T11:27:23;19.73;;;14.13;;
21424;SDS011;10873;51.132;16.848;2023-03-01T11:29:54;21.45;;;14.25;;
21424;SDS011;10873;51.132;16.848;2023-03-01T11:32:24;22.10;;;14.23;;
21424;SDS011;10873;51.132;16.848;2023-03-01T11:34:54;19.75;;;13.88;;
21424;SDS011;10873;51.132;16.848;2023-03-01T11:37:26;23.02;;;14.23;;
21424;SDS011;10873;51.132;16.848;2023-03-01T11:40:02;20.13;;;13.73;;
21424;SDS011;10873;51.132;16.848;2023-03-01T11:42:40;18.10;;;13.77;;
21424;SDS011;10873;51.132;16.848;2023-03-01T11:45:12;19.15;;;13.43;;
21424;SDS011;10873;51.132;16.848;2023-03-01T11:47:42;19.40;;;13.50;;
21424;SDS011;10873;51.132;16.848;2023-03-01T11:50:20;19.05;;;12.75;;
21424;SDS011;10873;51.132;16.848;2023-03-01T11:52:56;18.75;;;12.90;;
21424;SDS011;10873;51.132;16.848;2023-03-01T11:55:46;16.33;;;12.10;;
21424;SDS011;10873;51.132;16.848;2023-03-01T11:58:31;18.63;;;12.68;;
21424;SDS011;10873;51.132;16.848;2023-03-01T12:01:14;17.00;;;12.45;;
21424;SDS011;10873;51.132;16.848;2023-03-01T12:03:58;16.50;;;11.93;;
21424;SDS011;10873;51.132;16.848;2023-03-01T12:06:40;15.38;;;11.57;;
21424;SDS011;10873;51.132;16.848;2023-03-01T12:09:17;18.35;;;11.85;;
21424;SDS011;10873;51.132;16.848;2023-03-01T12:11:58;20.25;;;12.68;;
21424;SDS011;10873;51.132;16.848;2023-03-01T12:14:46;19.00;;;12.43;;
21424;SDS011;10873;51.132;16.848;2023-03-01T12:17:24;17.40;;;12.68;;
21424;SDS011;10873;51.132;16.848;2023-03-01T12:20:19;18.80;;;12.90;;
21424;SDS011;10873;51.132;16.848;2023-03-01T12:22:54;16.35;;;12.05;;
21424;SDS011;10873;51.132;16.848;2023-03-01T12:25:34;17.58;;;12.25;;
21424;SDS011;10873;51.132;16.848;2023-03-01T12:31:08;17.30;;;12.68;;
21424;SDS011;10873;51.132;16.848;2023-03-01T12:33:51;17.77;;;12.95;;
21424;SDS011;10873;51.132;16.848;2023-03-01T12:39:19;18.67;;;12.75;;
21424;SDS011;10873;51.132;16.848;2023-03-01T12:41:59;17.35;;;12.63;;
21424;SDS011;10873;51.132;16.848;2023-03-01T12:44:39;18.13;;;12.25;;
21424;SDS011;10873;51.132;16.848;2023-03-01T12:47:19;16.00;;;11.60;;
21424;SDS011;10873;51.132;16.848;2023-03-01T12:49:54;16.65;;;12.02;;
21424;SDS011;10873;51.132;16.848;2023-03-01T12:52:22;17.63;;;12.50;;
21424;SDS011;10873;51.132;16.848;2023-03-01T12:54:55;18.77;;;12.52;;
21424;SDS011;10873;51.132;16.848;2023-03-01T12:57:25;18.73;;;11.98;;
21424;SDS011;10873;51.132;16.848;2023-03-01T13:00:08;18.35;;;12.23;;
21424;SDS011;10873;51.132;16.848;2023-03-01T13:02:48;13.70;;;10.32;;
21424;SDS011;10873;51.132;16.848;2023-03-01T13:05:22;16.48;;;11.60;;
21424;SDS011;10873;51.132;16.848;2023-03-01T13:07:55;14.93;;;10.73;;
21424;SDS011;10873;51.132;16.848;2023-03-01T13:10:29;14.40;;;10.35;;
21424;SDS011;10873;51.132;16.848;2023-03-01T13:13:01;16.75;;;10.65;;
21424;SDS011;10873;51.132;16.848;2023-03-01T13:15:37;16.48;;;11.40;;
21424;SDS011;10873;51.132;16.848;2023-03-01T13:18:25;14.82;;;10.45;;
21424;SDS011;10873;51.132;16.848;2023-03-01T13:20:57;13.75;;;10.73;;
21424;SDS011;10873;51.132;16.848;2023-03-01T13:23:26;15.82;;;10.77;;
21424;SDS011;10873;51.132;16.848;2023-03-01T13:25:59;13.75;;;10.63;;
21424;SDS011;10873;51.132;16.848;2023-03-01T13:28:40;14.75;;;10.38;;
21424;SDS011;10873;51.132;16.848;2023-03-01T13:37:23;12.63;;;8.88;;
21424;SDS011;10873;51.132;16.848;2023-03-01T13:39:55;12.98;;;9.40;;
21424;SDS011;10873;51.132;16.848;2023-03-01T13:42:31;12.38;;;9.05;;
21424;SDS011;10873;51.132;16.848;2023-03-01T13:45:12;12.38;;;9.23;;
21424;SDS011;10873;51.132;16.848;2023-03-01T13:47:45;14.48;;;9.02;;
21424;SDS011;10873;51.132;16.848;2023-03-01T13:50:19;12.25;;;9.45;;
21424;SDS011;10873;51.132;16.848;2023-03-01T13:52:49;12.25;;;8.95;;
21424;SDS011;10873;51.132;16.848;2023-03-01T13:55:19;12.38;;;8.88;;
21424;SDS011;10873;51.132;16.848;2023-03-01T13:57:51;12.45;;;8.73;;
21424;SDS011;10873;51.132;16.848;2023-03-01T14:00:27;11.80;;;8.57;;
21424;SDS011;10873;51.132;16.848;2023-03-01T14:03:00;12.18;;;8.98;;
21424;SDS011;10873;51.132;16.848;2023-03-01T14:05:32;11.55;;;8.73;;
21424;SDS011;10873;51.132;16.848;2023-03-01T14:07:59;14.23;;;8.63;;
21424;SDS011;10873;51.132;16.848;2023-03-01T14:10:25;11.38;;;8.40;;
21424;SDS011;10873;51.132;16.848;2023-03-01T14:13:01;11.13;;;8.50;;
21424;SDS011;10873;51.132;16.848;2023-03-01T14:15:42;12.02;;;8.50;;
21424;SDS011;10873;51.132;16.848;2023-03-01T14:18:14;13.38;;;9.10;;
21424;SDS011;10873;51.132;16.848;2023-03-01T14:20:47;12.50;;;8.43;;
21424;SDS011;10873;51.132;16.848;2023-03-01T14:23:17;11.30;;;8.32;;
21424;SDS011;10873;51.132;16.848;2023-03-01T14:25:46;11.50;;;7.97;;
21424;SDS011;10873;51.132;16.848;2023-03-01T14:28:14;11.43;;;8.20;;
21424;SDS011;10873;51.132;16.848;2023-03-01T14:30:44;11.60;;;7.65;;
21424;SDS011;10873;51.132;16.848;2023-03-01T14:33:18;11.48;;;8.52;;
21424;SDS011;10873;51.132;16.848;2023-03-01T14:35:53;10.02;;;7.35;;
21424;SDS011;10873;51.132;16.848;2023-03-01T14:38:22;12.32;;;8.35;;
21424;SDS011;10873;51.132;16.848;2023-03-01T14:40:55;9.13;;;7.30;;